WetterOnline ( http://www.wetteronline.de )

Wetter aktuell Heidelberg

Aktuelles Wetter: Mannheim (100m)

6-stündlich | Neueste Meldungen
Ortszeit Temperatur Wetter
Di, 19.02. 7:00 5.4° C wolkig
Di, 19.02. 1:00 4.3° C leicht bewölkt
Mo, 18.02. 19:00 8.5° C wolkig
Mo, 18.02. 13:00 12.4° C wolkenlos
Mo, 18.02. 7:00 -2.7° C wolkenlos
Mo, 18.02. 1:00 -0.4° C wolkenlos
So, 17.02. 19:00 7.9° C leicht bewölkt
So, 17.02. 13:00 12.8° C leicht bewölkt
Ortszeit Temperatur Wetter
Di, 19.02. 11:00 6.5° C bedeckt
Di, 19.02. 10:50 6.5° C bedeckt
Di, 19.02. 10:40 6.3° C leichter Regen
Di, 19.02. 10:30 6.0° C bedeckt
Di, 19.02. 10:20 6.0° C bedeckt
Di, 19.02. 10:10 5.9° C leichter Regen
Di, 19.02. 10:00 5.5° C bewölkt
Di, 19.02. 9:30 5.2° C bedeckt
Di, 19.02. 9:00 5.5° C bedeckt
Di, 19.02. 8:30 5.3° C -
Di, 19.02. 8:00 5.2° C bewölkt
Ortszeit Relative Feuchte Sichtweite
Di, 19.02. 7:00 68% 23 km
Di, 19.02. 1:00 72% 17 km
Mo, 18.02. 19:00 56% 26 km
Mo, 18.02. 13:00 42% 17 km
Mo, 18.02. 7:00 94% 6 km
Mo, 18.02. 1:00 83% 17 km
So, 17.02. 19:00 59% 22 km
So, 17.02. 13:00 45% 21 km
Ortszeit Relative Feuchte Sichtweite
Di, 19.02. 11:00 71% 20 km
Di, 19.02. 10:50 71% -
Di, 19.02. 10:40 72% -
Di, 19.02. 10:30 74% 20 km
Di, 19.02. 10:20 74% -
Di, 19.02. 10:10 75% -
Di, 19.02. 10:00 73% 21 km
Di, 19.02. 9:30 73% 19 km
Di, 19.02. 9:00 71% 22 km
Di, 19.02. 8:30 72% 22 km
Di, 19.02. 8:00 70% 22 km
Ortszeit Niederschlagsmenge Niederschlagsart
Di, 19.02. 7:00 0.0 l/m2 in 12 Std. -
Di, 19.02. 1:00 0.0 l/m2 in 6 Std. -
Mo, 18.02. 19:00 0.0 l/m2 in 12 Std. -
Mo, 18.02. 13:00 0.0 l/m2 in 6 Std. -
Mo, 18.02. 7:00 0.0 l/m2 in 12 Std. -
Mo, 18.02. 1:00 0.0 l/m2 in 6 Std. -
So, 17.02. 19:00 0.0 l/m2 in 12 Std. -
So, 17.02. 13:00 0.0 l/m2 in 6 Std. -
Ortszeit Niederschlagsmenge Niederschlagsart
Di, 19.02. 11:00 0.1 l/m2 in 1 Std. Regen
Di, 19.02. 10:50 keine Meldung -
Di, 19.02. 10:40 keine Meldung -
Di, 19.02. 10:30 0.1 l/m2 in 1 Std. Schneeregen
Di, 19.02. 10:20 keine Meldung -
Di, 19.02. 10:10 keine Meldung -
Di, 19.02. 10:00 0.1 l/m2 in 1 Std. Regen
Di, 19.02. 9:30 0.1 l/m2 in 1 Std. Schneeregen
Di, 19.02. 9:00 0.0 l/m2 in 1 Std. -
Di, 19.02. 8:30 0.0 l/m2 in 1 Std. -
Di, 19.02. 8:00 0.0 l/m2 in 1 Std. -
Ortszeit Stärke Spitze Richtung
km/h Bft. km/h Grad Sektor
Di, 19.02. 7:00 9 2 19 160° S
Di, 19.02. 1:00 9 2 15 180° S
Mo, 18.02. 19:00 7 2 20 80° O
Mo, 18.02. 13:00 11 2 29 150° SO
Mo, 18.02. 7:00 4 1 7 190° S
Mo, 18.02. 1:00 4 1 11 350° N
So, 17.02. 19:00 2 1 24 100° O
So, 17.02. 13:00 7 2 25 200° S
Ortszeit Stärke Spitze Richtung
km/h Bft. km/h Grad Sektor
Di, 19.02. 11:00 7 2 11 150° SO
Di, 19.02. 10:50 7 2 - 150° SO
Di, 19.02. 10:40 7 2 - 140° SO
Di, 19.02. 10:30 7 2 11 150° SO
Di, 19.02. 10:20 7 2 - 150° SO
Di, 19.02. 10:10 6 1 - 140° SO
Di, 19.02. 10:00 6 1 11 140° SO
Di, 19.02. 9:30 7 2 11 160° S
Di, 19.02. 9:00 9 2 19 170° S
Di, 19.02. 8:30 11 2 17 160° S
Di, 19.02. 8:00 11 2 18 160° S
Ortszeit Untergrenze Bedeckung Gattung
total tief tief mittel hoch
Di, 19.02. 7:00 1800 m 8/8 2/8 - - -
Di, 19.02. 1:00 9000 m 3/8 0/8 - - -
Mo, 18.02. 19:00 7500 m 8/8 0/8 - - -
Mo, 18.02. 13:00 - 0/8 0/8 - - -
Mo, 18.02. 7:00 - 0/8 0/8 - - -
Mo, 18.02. 1:00 - 0/8 0/8 - - -
So, 17.02. 19:00 9000 m 6/8 0/8 - - -
So, 17.02. 13:00 8700 m 8/8 0/8 - - -
Ortszeit Bedeckungsgrad in Achtel und Wolkenuntergrenze
Di, 19.02. 11:00 4(810m) 8(1350m)
Di, 19.02. 10:50 4(810m) 8(1350m)
Di, 19.02. 10:40 1(780m) 8(1350m)
Di, 19.02. 10:30 8(1380m)
Di, 19.02. 10:20 8(1380m)
Di, 19.02. 10:10 8(1380m)
Di, 19.02. 10:00 7(1440m) 8(1500m)
Di, 19.02. 9:30 8(1500m)
Di, 19.02. 9:00 7(1500m) 8(2400m)
Di, 19.02. 8:30 -
Di, 19.02. 8:00 4(1500m) 7(5700m) 8(9000m)
Ortszeit Luftdruck NN (hPa) Tendenz (hPa in 3 Std.)
Di, 19.02. 7:00 1020 + 0,3
Di, 19.02. 1:00 1020 + 0,3
Mo, 18.02. 19:00 1019 - 0,8
Mo, 18.02. 13:00 1021 - 1,4
Mo, 18.02. 7:00 1023 - 0,1
Mo, 18.02. 1:00 1024 + 0,1
So, 17.02. 19:00 1023 - 0,5
So, 17.02. 13:00 1025 - 1,3
Ortszeit Luftdruck NN (hPa) Tendenz (hPa in 3 Std.)
Di, 19.02. 11:00 1022 + 1,9
Di, 19.02. 10:50 1022 keine Meldung
Di, 19.02. 10:40 1022 keine Meldung
Di, 19.02. 10:30 1022 + 1,9
Di, 19.02. 10:20 1022 keine Meldung
Di, 19.02. 10:10 1022 keine Meldung
Di, 19.02. 10:00 1022 + 2,0
Di, 19.02. 9:30 1021 + 1,6
Di, 19.02. 9:00 1021 + 1,4
Di, 19.02. 8:30 1020 + 0,9
Di, 19.02. 8:00 1020 + 0,7
Ortszeit Schneehöhe (cm)
Di, 19.02. 7:00 0
Di, 19.02. 1:00 0
Mo, 18.02. 19:00 0
Mo, 18.02. 13:00 0
Mo, 18.02. 7:00 0
Mo, 18.02. 1:00 0
So, 17.02. 19:00 0
So, 17.02. 13:00 0
Ortszeit Schneehöhe (cm)
Di, 19.02. 11:00 0
Di, 19.02. 10:50 0
Di, 19.02. 10:40 0
Di, 19.02. 10:30 0
Di, 19.02. 10:20 0
Di, 19.02. 10:10 0
Di, 19.02. 10:00 0
Di, 19.02. 9:30 0
Di, 19.02. 9:00 0
Di, 19.02. 8:30 0
Di, 19.02. 8:00 0
Link zu dieser Seite / Seite empfehlen

Das Wetter in ...